This is the latest recevied weather packets stored in our database for station/object CE3MXM-13. If no packets are shown the sender has not sent any weather packets the latest 10 day(s).
| Time | Temp. | Humidity | Pressure | Rain* | Wind** | Luminosity | Snow |
|---|---|---|---|---|---|---|---|
| 1777563787 | 23.33° C | 53% | 1009 hPa | - | - | - | - |
| 1777563487 | 22.78° C | 55% | 1009 hPa | - | - | - | - |
| 1777563187 | 22.78° C | 55% | 1009 hPa | - | - | - | - |
| 1777562886 | 22.22° C | 55% | 1008.8 hPa | - | - | - | - |
| 1777562587 | 22.22° C | 58% | 1009 hPa | - | - | - | - |
| 1777562286 | 22.78° C | 57% | 1008.9 hPa | - | - | - | - |
| 1777561986 | 22.22° C | 55% | 1008.9 hPa | - | - | - | - |
| 1777561686 | 22.22° C | 57% | 1008.8 hPa | - | - | - | - |
| 1777561386 | 22.22° C | 56% | 1008.7 hPa | - | - | - | - |
| 1777561086 | 22.22° C | 57% | 1008.6 hPa | - | - | - | - |
| 1777560786 | 21.11° C | 60% | 1008.6 hPa | - | - | - | - |
| 1777560486 | 20.56° C | 63% | 1008.5 hPa | - | - | - | - |
| 1777560186 | 19.44° C | 67% | 1008.2 hPa | - | - | - | - |
| 1777559886 | 18.33° C | 71% | 1008.2 hPa | - | - | - | - |
| 1777559585 | 16.67° C | 85% | 1008.1 hPa | - | - | - | - |
| 1777559285 | 16.11° C | 86% | 1008 hPa | - | - | - | - |
| 1777558985 | 16.11° C | 87% | 1007.9 hPa | - | - | - | - |
| 1777558685 | 16.67° C | 88% | 1007.9 hPa | - | - | - | - |
| 1777558385 | 16.67° C | 94% | 1007.8 hPa | - | - | - | - |
| 1777558085 | 16.11° C | 90% | 1007.7 hPa | - | - | - | - |
| 1777557785 | 16.11° C | 91% | 1007.6 hPa | - | - | - | - |
| 1777557485 | 16.11° C | 92% | 1007.6 hPa | - | - | - | - |
| 1777557185 | 15.56° C | 92% | 1007.3 hPa | - | - | - | - |
| 1777556884 | 15.56° C | 93% | 1007.5 hPa | - | - | - | - |
| 1777556585 | 15° C | 96% | 1007.3 hPa | - | - | - | - |
* Rain since midnight (hover to see other rain measurements)
** Current wind speed in m/s (hover to see current wind gust speed)